createdAt,value
2022-12-04T00:01:44.587Z,10.14
2022-12-04T00:06:53.972Z,10.05
2022-12-04T00:12:00.652Z,10.08
2022-12-04T00:17:04.212Z,10.04
2022-12-04T00:22:10.388Z,10.04
2022-12-04T00:27:13.950Z,10.04
2022-12-04T00:32:17.518Z,9.94
2022-12-04T00:37:22.716Z,9.98
2022-12-04T00:42:26.291Z,9.97
2022-12-04T00:47:29.860Z,9.91
2022-12-04T00:52:35.084Z,9.90
2022-12-04T00:57:38.637Z,9.83
2022-12-04T01:02:42.214Z,9.84
2022-12-04T01:07:47.555Z,9.85
2022-12-04T01:12:51.864Z,9.90
2022-12-04T01:17:55.400Z,9.82
2022-12-04T01:23:00.636Z,9.79
2022-12-04T01:28:04.295Z,9.86
2022-12-04T01:33:08.464Z,9.82
2022-12-04T01:38:13.683Z,9.76
2022-12-04T01:43:17.527Z,9.82
2022-12-04T01:48:27.116Z,9.77
2022-12-04T01:53:34.507Z,9.76
2022-12-04T01:58:43.885Z,9.82
2022-12-04T02:03:47.488Z,9.78
2022-12-04T02:08:52.868Z,9.73
2022-12-04T02:14:08.729Z,9.71
2022-12-04T02:19:33.750Z,9.74
2022-12-04T02:24:50.571Z,9.63
2022-12-04T02:30:03.145Z,9.60
2022-12-04T02:35:13.966Z,9.65
2022-12-04T02:40:23.977Z,9.67
2022-12-04T02:45:34.684Z,9.70
2022-12-04T02:50:41.163Z,9.71
2022-12-04T02:55:48.808Z,9.74
2022-12-04T03:00:55.703Z,9.73
2022-12-04T03:06:03.786Z,9.70
2022-12-04T03:11:07.657Z,9.63
2022-12-04T03:16:16.569Z,9.43
2022-12-04T03:21:23.796Z,9.43
2022-12-04T03:26:30.061Z,9.49
2022-12-04T03:31:41.158Z,9.35
2022-12-04T03:36:53.419Z,9.42
2022-12-04T03:42:02.522Z,9.46
2022-12-04T03:47:12.728Z,9.53
2022-12-04T03:52:21.787Z,9.57
2022-12-04T03:57:29.045Z,9.47
2022-12-04T04:02:38.532Z,9.49
2022-12-04T04:07:48.580Z,9.54
2022-12-04T04:12:57.010Z,9.56
2022-12-04T04:18:03.262Z,9.51
2022-12-04T04:23:10.389Z,9.54
2022-12-04T04:28:35.270Z,9.52
2022-12-04T04:33:48.823Z,9.50
2022-12-04T04:39:01.400Z,9.42
2022-12-04T04:44:17.034Z,9.43
2022-12-04T04:49:25.206Z,9.44
2022-12-04T04:54:30.784Z,9.25
2022-12-04T04:59:34.354Z,9.29
2022-12-04T05:04:39.514Z,9.38
2022-12-04T05:09:43.075Z,9.36
2022-12-04T05:14:48.247Z,9.31
2022-12-04T05:19:53.824Z,9.32
2022-12-04T05:24:57.733Z,9.21
2022-12-04T05:30:01.312Z,9.17
2022-12-04T05:35:11.139Z,9.23
2022-12-04T05:40:15.432Z,9.28
2022-12-04T05:45:19.180Z,9.25
2022-12-04T05:50:24.438Z,9.23
2022-12-04T05:55:28.022Z,9.13
2022-12-04T06:00:33.582Z,8.95
2022-12-04T06:05:38.778Z,8.96
2022-12-04T06:10:42.471Z,9.01
2022-12-04T06:15:46.061Z,8.89
2022-12-04T06:20:52.503Z,8.99
2022-12-04T06:25:56.378Z,9.00
2022-12-04T06:31:02.687Z,9.10
2022-12-04T06:36:15.176Z,9.71
2022-12-04T06:41:21.344Z,10.02
2022-12-04T06:46:26.599Z,10.24
2022-12-04T06:51:33.506Z,10.38
2022-12-04T06:56:37.193Z,10.44
2022-12-04T07:01:40.937Z,10.58
2022-12-04T07:06:46.181Z,10.55
2022-12-04T07:11:49.719Z,10.37
2022-12-04T07:16:53.460Z,10.42
2022-12-04T07:21:58.705Z,10.37
2022-12-04T07:27:03.015Z,10.38
2022-12-04T07:32:07.460Z,10.29
2022-12-04T07:37:12.848Z,9.72
2022-12-04T07:42:21.002Z,9.42
2022-12-04T07:47:27.473Z,9.16
2022-12-04T07:52:35.980Z,9.14
2022-12-04T07:57:39.523Z,8.82
2022-12-04T08:02:43.072Z,8.81
2022-12-04T08:07:48.463Z,8.72
2022-12-04T08:12:52.056Z,8.65
2022-12-04T08:17:56.064Z,8.67
2022-12-04T08:23:01.287Z,8.61
2022-12-04T08:28:04.877Z,8.53
2022-12-04T08:33:08.417Z,8.49
2022-12-04T08:38:14.517Z,8.49
2022-12-04T08:43:18.116Z,8.49
2022-12-04T08:48:21.732Z,8.48
2022-12-04T08:53:28.042Z,8.28
2022-12-04T08:58:31.639Z,8.27
2022-12-04T09:03:35.582Z,8.39
2022-12-04T09:08:40.826Z,8.45
2022-12-04T09:13:45.283Z,8.50
2022-12-04T09:18:49.763Z,8.40
2022-12-04T09:23:54.953Z,8.35
2022-12-04T09:29:00.968Z,8.47
2022-12-04T09:34:04.861Z,8.42
2022-12-04T09:39:11.744Z,8.40
2022-12-04T09:44:22.297Z,8.43
2022-12-04T09:49:30.256Z,8.45
2022-12-04T09:54:41.477Z,8.31
2022-12-04T09:59:45.731Z,8.39
2022-12-04T10:04:51.410Z,8.53
2022-12-04T10:10:00.607Z,8.78
2022-12-04T10:15:15.133Z,8.90
2022-12-04T10:20:36.780Z,9.09
2022-12-04T10:25:43.959Z,9.19
2022-12-04T10:30:49.352Z,9.29
2022-12-04T10:35:54.858Z,9.35
2022-12-04T10:41:07.757Z,9.52
2022-12-04T10:46:19.399Z,9.59
2022-12-04T10:51:23.446Z,9.47
2022-12-04T10:56:28.615Z,9.56
2022-12-04T11:01:34.109Z,9.57
2022-12-04T11:06:38.789Z,9.66
2022-12-04T11:11:44.518Z,9.74
2022-12-04T11:16:50.414Z,9.71
2022-12-04T11:21:55.450Z,9.73
2022-12-04T11:27:02.877Z,9.75
2022-12-04T11:32:08.443Z,9.78
2022-12-04T11:37:21.846Z,9.82
2022-12-04T11:42:31.031Z,9.76
2022-12-04T11:47:34.639Z,9.82
2022-12-04T11:52:51.941Z,9.85
2022-12-04T11:58:13.454Z,9.76
2022-12-04T12:03:23.964Z,9.62
2022-12-04T12:08:37.765Z,9.66
2022-12-04T12:13:53.952Z,9.59
2022-12-04T12:19:18.502Z,9.60
2022-12-04T12:24:29.787Z,9.62
2022-12-04T12:29:56.515Z,9.61
2022-12-04T12:35:01.378Z,9.67
2022-12-04T12:40:11.347Z,9.71
2022-12-04T12:45:27.933Z,9.59
2022-12-04T12:50:36.693Z,9.62
2022-12-04T12:55:45.237Z,9.67
2022-12-04T13:00:57.133Z,9.64
2022-12-04T13:06:06.828Z,9.65
2022-12-04T13:11:14.444Z,9.58
2022-12-04T13:16:25.213Z,9.64
2022-12-04T13:21:36.517Z,9.66
2022-12-04T13:26:49.423Z,9.61
2022-12-04T13:32:04.001Z,9.64
2022-12-04T13:37:34.348Z,9.66
2022-12-04T13:42:37.952Z,9.66
2022-12-04T13:47:43.142Z,9.66
2022-12-04T13:52:47.142Z,9.78
2022-12-04T13:57:55.504Z,9.82
2022-12-04T14:03:04.286Z,9.68
2022-12-04T14:08:22.292Z,9.57
2022-12-04T14:13:29.368Z,9.57
2022-12-04T14:18:34.777Z,9.46
2022-12-04T14:23:40.495Z,9.51
2022-12-04T14:28:44.074Z,9.54
2022-12-04T14:33:53.215Z,9.46
2022-12-04T14:39:13.123Z,9.47
2022-12-04T14:44:29.077Z,9.43
2022-12-04T14:49:47.240Z,9.43
2022-12-04T14:54:57.804Z,9.41
2022-12-04T15:00:01.791Z,9.40
2022-12-04T15:05:11.259Z,9.44
2022-12-04T15:10:21.028Z,9.71
2022-12-04T15:15:27.465Z,9.80
2022-12-04T15:20:39.069Z,9.92
2022-12-04T15:25:46.789Z,9.96
2022-12-04T15:30:52.255Z,9.92
2022-12-04T15:36:01.166Z,10.01
2022-12-04T15:41:05.484Z,9.93
2022-12-04T15:46:13.963Z,9.99
2022-12-04T15:51:22.053Z,9.93
2022-12-04T15:56:25.634Z,9.98
2022-12-04T16:01:38.452Z,9.96
2022-12-04T16:06:49.760Z,9.94
2022-12-04T16:12:00.843Z,9.90
2022-12-04T16:17:06.491Z,9.81
2022-12-04T16:22:20.089Z,9.93
2022-12-04T16:27:25.168Z,10.06
2022-12-04T16:32:32.359Z,10.23
2022-12-04T16:37:37.616Z,10.36
2022-12-04T16:42:41.960Z,10.44
2022-12-04T16:47:45.802Z,10.52
2022-12-04T16:52:51.280Z,10.72
2022-12-04T16:57:54.867Z,10.81
2022-12-04T17:02:59.074Z,10.73
2022-12-04T17:08:04.370Z,10.80
2022-12-04T17:13:07.940Z,10.82
2022-12-04T17:18:15.073Z,11.00
2022-12-04T17:23:22.927Z,11.15
2022-12-04T17:28:26.469Z,11.19
2022-12-04T17:33:30.264Z,11.28
2022-12-04T17:38:35.524Z,11.42
2022-12-04T17:43:39.088Z,11.78
2022-12-04T17:48:43.040Z,11.91
2022-12-04T17:53:48.723Z,11.76
2022-12-04T17:58:52.693Z,11.75
2022-12-04T18:03:57.645Z,11.74
2022-12-04T18:09:03.924Z,11.87
2022-12-04T18:14:11.980Z,11.88
2022-12-04T18:19:16.424Z,11.98
2022-12-04T18:24:22.020Z,12.04
2022-12-04T18:29:27.107Z,12.34
2022-12-04T18:34:30.668Z,12.56
2022-12-04T18:39:35.879Z,12.54
2022-12-04T18:44:39.428Z,12.52
2022-12-04T18:49:43.054Z,12.54
2022-12-04T18:54:48.283Z,12.81
2022-12-04T18:59:52.170Z,12.97
2022-12-04T19:04:55.702Z,13.35
2022-12-04T19:10:16.059Z,13.72
2022-12-04T19:15:20.051Z,13.52
2022-12-04T19:20:23.615Z,13.60
2022-12-04T19:25:28.791Z,13.58
2022-12-04T19:30:34.436Z,13.69
2022-12-04T19:35:38.006Z,13.86
2022-12-04T19:40:43.226Z,13.76
2022-12-04T19:45:49.416Z,14.34
2022-12-04T19:50:53.049Z,14.56
2022-12-04T19:55:58.234Z,14.72
2022-12-04T20:01:02.046Z,14.79
2022-12-04T20:06:07.281Z,15.06
2022-12-04T20:11:13.748Z,15.09
2022-12-04T20:16:18.784Z,15.25
2022-12-04T20:21:22.853Z,14.72
2022-12-04T20:26:30.004Z,14.75
2022-12-04T20:31:35.077Z,14.80
2022-12-04T20:36:40.895Z,14.48
2022-12-04T20:41:46.616Z,14.53
2022-12-04T20:46:50.279Z,14.02
2022-12-04T20:51:53.943Z,14.10
2022-12-04T20:56:59.126Z,14.18
2022-12-04T21:02:02.710Z,14.23
2022-12-04T21:07:06.551Z,14.14
2022-12-04T21:12:12.272Z,14.09
2022-12-04T21:17:17.576Z,14.13
2022-12-04T21:22:21.244Z,14.09
2022-12-04T21:27:26.556Z,14.18
2022-12-04T21:32:30.159Z,14.41
2022-12-04T21:37:33.705Z,14.24
2022-12-04T21:42:38.950Z,14.15
2022-12-04T21:47:42.506Z,13.67
2022-12-04T21:52:46.056Z,13.26
2022-12-04T21:57:52.208Z,13.04
2022-12-04T22:02:55.863Z,12.68
2022-12-04T22:07:59.481Z,12.41
2022-12-04T22:13:06.343Z,12.04
2022-12-04T22:18:10.717Z,11.97
2022-12-04T22:23:14.300Z,12.24
2022-12-04T22:28:19.534Z,12.26
2022-12-04T22:33:23.094Z,12.33
2022-12-04T22:38:26.657Z,12.44
2022-12-04T22:43:36.392Z,12.48
2022-12-04T22:48:44.634Z,12.56
2022-12-04T22:53:50.229Z,12.64
2022-12-04T22:58:55.873Z,12.83
2022-12-04T23:03:59.966Z,12.82
2022-12-04T23:09:07.049Z,12.94
2022-12-04T23:14:15.396Z,12.92
2022-12-04T23:19:20.450Z,12.95
2022-12-04T23:24:24.135Z,12.81
2022-12-04T23:29:52.033Z,12.80
2022-12-04T23:34:53.759Z,12.85
2022-12-04T23:39:57.582Z,13.18
2022-12-04T23:45:02.882Z,13.10
2022-12-04T23:50:07.302Z,13.09
2022-12-04T23:55:11.097Z,12.98
